Hlavní strana
METAR-TAF:

METAR-TAF

Letiště :

Namsos, Norsko

zeměpisná šířka: 64-28N, zeměpisná délka: 011-35E, výška: 0 m

Aktuální stav počasí

Zpráva byla vytvořena před 34 minutami, v 08:50 UTC
Jihozápadní vítr 13 kt
Teplota 4°C
Vlhkost vzduchu 81%
Tlak 1003 hPa
Viditelnost 10 km a více
Polojasno ve výšce 2500 ft
Oblačno až skoro zataženo ve výšce 3200 ft
přeháňky v blízkosti

METAR: ENNM 160850Z 22013KT 9999 VCSH SCT025 BKN032 04/01 Q1003

Čas: 10:24 (09:24 UTC)


TAF: chybějící

Stav a předpovědi počasí z více než 4 000 letišť (zprávy METAR a TAF).

Červené a žluté tečky na mapě představují dostupné meteorologické stanice.

Když kurzor umístíte na tečku, zobrazí se název stanice.

Pak kliknutím zobrazíte stav a předpověď počasí.

Chcete-li změnit mapu, kliknutím na zelené tlačítko se znaménkem +mapu přiblížíte, kliknutím na zelené tlačítko se znaménkem – mapu oddálíte a kliknutím na zelené šipky přejdete na sousední mapy.


METAR-TAF: